aviador You're here:

PACV Decoded Metar

CORDOVA in AK, USA
Report Time2018-01-17 08:53:00
UTC Time2018-01-17 09:18:10
Flight Rules vfr VFR
Wind110° at 16 Gusting to 24 kt
W.Decomp.*RWY 09: 16.0 kt HW 0.3 kt RCW
RWY 16: 5.7 kt HW 14.9 kt LCW
W.Rank110° ranks 1
Current wind is above 110° avg. (8.2)
Visibility9999 m
Phenomena:Light Rain
Clouds:Scattered 028 Hf
Broken 044 Hf
Overcast 110 Hf
Expected CloudBase > 1,200 ft AGL from Temp-Dew spread
Ceiling4,400 ft
Temp06°C (ISA -9)
Dew Point03°C (81% RH)
AAT-1.3°C
QNH996 hPa
Density Alt-351 ft
Elevation39 ft
Report Wrong Elevation
Raw Report
PACV 170853Z 11016G24KT 7SM -RA SCT028 BKN044 OVC110 06/03 A2941
RMK AO2 SLP960 P0001 60007 T00560028 401060050 51013=

Extra information for PACV:More info

Metar Taf Metar & Taf Last 4 Metars F.Rules Stats Wind Profile Meteogram Temp Stats Airport Information Weather charts Add Link Nearby VenuesMetar ALERT Operation Metar Decoded Social comments

AIRNAV info for PACV